createdAt,value
2023-02-11T00:01:14.691Z,4.55
2023-02-11T00:03:42.522Z,3.80
2023-02-11T00:06:11.953Z,3.67
2023-02-11T00:08:40.358Z,3.70
2023-02-11T00:11:08.658Z,3.97
2023-02-11T00:13:36.447Z,3.55
2023-02-11T00:16:09.852Z,4.10
2023-02-11T00:18:37.838Z,3.75
2023-02-11T00:21:09.832Z,3.90
2023-02-11T00:23:38.392Z,3.67
2023-02-11T00:26:12.698Z,3.63
2023-02-11T00:28:41.574Z,4.00
2023-02-11T00:31:14.052Z,3.00
2023-02-11T00:33:42.073Z,3.53
2023-02-11T00:36:14.515Z,4.30
2023-02-11T00:38:43.976Z,3.42
2023-02-11T00:41:13.055Z,4.50
2023-02-11T00:43:40.924Z,3.80
2023-02-11T00:46:09.484Z,3.95
2023-02-11T00:48:38.772Z,4.15
2023-02-11T00:51:06.875Z,3.88
2023-02-11T00:53:34.797Z,3.53
2023-02-11T00:56:03.055Z,3.63
2023-02-11T00:58:30.971Z,3.72
2023-02-11T01:00:58.947Z,3.47
2023-02-11T01:03:26.816Z,3.85
2023-02-11T01:05:56.382Z,3.90
2023-02-11T01:08:24.270Z,3.92
2023-02-11T01:10:57.012Z,3.58
2023-02-11T01:13:25.683Z,3.65
2023-02-11T01:15:55.125Z,3.63
2023-02-11T01:18:22.978Z,3.20
2023-02-11T01:20:52.581Z,3.47
2023-02-11T01:23:21.914Z,4.15
2023-02-11T01:25:50.559Z,4.40
2023-02-11T01:28:19.952Z,4.20
2023-02-11T01:30:47.964Z,4.53
2023-02-11T01:33:16.230Z,3.88
2023-02-11T01:35:44.582Z,4.07
2023-02-11T01:38:17.557Z,3.88
2023-02-11T01:40:52.437Z,3.92
2023-02-11T01:43:21.034Z,4.35
2023-02-11T01:45:59.892Z,3.95
2023-02-11T01:48:31.178Z,4.10
2023-02-11T01:51:05.224Z,4.22
2023-02-11T01:53:51.186Z,5.32
2023-02-11T01:56:39.297Z,4.78
2023-02-11T01:59:12.462Z,4.35
2023-02-11T02:01:45.913Z,4.43
2023-02-11T02:04:17.617Z,4.38
2023-02-11T02:06:51.756Z,4.45
2023-02-11T02:09:24.177Z,4.10
2023-02-11T02:11:53.403Z,4.65
2023-02-11T02:14:21.429Z,4.43
2023-02-11T02:16:49.508Z,4.82
2023-02-11T02:19:55.031Z,4.05
2023-02-11T02:22:54.197Z,4.35
2023-02-11T02:25:55.766Z,4.45
2023-02-11T02:28:53.150Z,5.13
2023-02-11T02:31:42.640Z,4.25
2023-02-11T02:34:16.703Z,4.93
2023-02-11T02:36:52.934Z,4.43
2023-02-11T02:39:25.043Z,5.88
2023-02-11T02:41:54.708Z,4.40
2023-02-11T02:44:22.735Z,4.63
2023-02-11T02:46:50.583Z,4.40
2023-02-11T02:49:19.740Z,4.70
2023-02-11T02:52:11.871Z,4.13
2023-02-11T02:54:59.989Z,4.90
2023-02-11T02:57:34.409Z,4.85
2023-02-11T03:00:15.745Z,4.68
2023-02-11T03:02:57.207Z,4.97
2023-02-11T03:05:34.670Z,5.30
2023-02-11T03:08:09.406Z,4.65
2023-02-11T03:10:41.299Z,5.32
2023-02-11T03:13:10.152Z,4.70
2023-02-11T03:15:41.876Z,4.85
2023-02-11T03:18:12.597Z,5.75
2023-02-11T03:20:44.448Z,5.50
2023-02-11T03:23:15.850Z,5.57
2023-02-11T03:25:51.430Z,5.55
2023-02-11T03:28:26.662Z,5.43
2023-02-11T03:31:01.051Z,5.55
2023-02-11T03:33:37.858Z,5.65
2023-02-11T03:36:12.018Z,6.15
2023-02-11T03:38:45.947Z,6.00
2023-02-11T03:41:17.174Z,5.93
2023-02-11T03:43:47.148Z,5.55
2023-02-11T03:46:17.767Z,5.57
2023-02-11T03:48:50.492Z,7.35
2023-02-11T03:51:22.021Z,7.18
2023-02-11T03:53:54.010Z,6.47
2023-02-11T03:56:24.620Z,6.50
2023-02-11T03:58:52.478Z,6.65
2023-02-11T04:01:20.312Z,6.97
2023-02-11T04:03:48.163Z,6.55
2023-02-11T04:06:16.021Z,7.40
2023-02-11T04:08:45.184Z,6.57
2023-02-11T04:11:12.976Z,6.82
2023-02-11T04:13:40.789Z,6.80
2023-02-11T04:16:08.882Z,7.30
2023-02-11T04:18:36.672Z,7.20
2023-02-11T04:21:04.672Z,7.22
2023-02-11T04:23:32.440Z,7.15
2023-02-11T04:26:01.618Z,7.53
2023-02-11T04:28:29.673Z,7.38
2023-02-11T04:30:57.557Z,7.30
2023-02-11T04:33:25.520Z,7.75
2023-02-11T04:35:53.334Z,8.05
2023-02-11T04:38:21.079Z,8.60
2023-02-11T04:40:48.869Z,8.52
2023-02-11T04:43:18.022Z,8.90
2023-02-11T04:45:45.855Z,8.82
2023-02-11T04:48:13.715Z,8.80
2023-02-11T04:50:42.677Z,9.80
2023-02-11T04:53:10.477Z,9.80
2023-02-11T04:55:38.232Z,9.57
2023-02-11T04:58:05.978Z,9.85
2023-02-11T05:00:35.127Z,10.40
2023-02-11T05:03:02.872Z,10.93
2023-02-11T05:05:30.651Z,10.52
2023-02-11T05:07:58.421Z,10.32
2023-02-11T05:10:26.233Z,10.93
2023-02-11T05:12:55.884Z,10.63
2023-02-11T05:15:23.894Z,11.75
2023-02-11T05:17:53.009Z,9.80
2023-02-11T05:20:21.100Z,11.10
2023-02-11T05:22:49.203Z,10.90
2023-02-11T05:25:17.030Z,10.98
2023-02-11T05:27:44.927Z,10.40
2023-02-11T05:30:13.343Z,10.45
2023-02-11T05:32:41.172Z,10.32
2023-02-11T05:35:10.531Z,10.75
2023-02-11T05:37:38.341Z,10.63
2023-02-11T05:40:07.188Z,9.85
2023-02-11T05:42:35.131Z,10.48
2023-02-11T05:45:02.945Z,10.52
2023-02-11T05:47:31.114Z,10.68
2023-02-11T05:49:58.885Z,11.70
2023-02-11T05:52:28.023Z,11.05
2023-02-11T05:54:55.825Z,11.13
2023-02-11T05:57:24.206Z,11.18
2023-02-11T05:59:52.003Z,11.35
2023-02-11T06:02:19.838Z,11.73
2023-02-11T06:04:47.857Z,11.25
2023-02-11T06:07:15.743Z,11.90
2023-02-11T06:09:45.085Z,11.32
2023-02-11T06:12:12.926Z,11.75
2023-02-11T06:14:40.713Z,11.60
2023-02-11T06:17:08.489Z,12.85
2023-02-11T06:19:36.362Z,12.38
2023-02-11T06:22:04.183Z,13.00
2023-02-11T06:24:58.623Z,12.55
2023-02-11T06:27:21.119Z,12.07
2023-02-11T06:29:49.629Z,12.23
2023-02-11T06:32:39.567Z,12.65
2023-02-11T06:35:05.507Z,12.52
2023-02-11T06:37:34.749Z,11.85
2023-02-11T06:40:02.531Z,12.10
2023-02-11T06:42:31.702Z,12.10
2023-02-11T06:44:59.507Z,12.45
2023-02-11T06:47:27.269Z,12.60
2023-02-11T06:49:55.057Z,11.98
2023-02-11T06:52:22.875Z,12.82
2023-02-11T06:54:50.646Z,13.73
2023-02-11T06:57:18.404Z,12.77
2023-02-11T06:59:47.523Z,12.30
2023-02-11T07:02:15.457Z,12.57
2023-02-11T07:04:44.035Z,13.63
2023-02-11T07:07:11.768Z,12.60
2023-02-11T07:09:39.580Z,12.95
2023-02-11T07:12:07.852Z,12.68
2023-02-11T07:14:35.686Z,12.65
2023-02-11T07:17:05.138Z,13.68
2023-02-11T07:19:33.035Z,13.63
2023-02-11T07:22:00.898Z,13.63
2023-02-11T07:24:28.672Z,14.73
2023-02-11T07:26:56.490Z,13.55
2023-02-11T07:29:24.282Z,14.40
2023-02-11T07:31:52.157Z,14.75
2023-02-11T07:34:21.397Z,13.60
2023-02-11T07:36:49.943Z,15.75
2023-02-11T07:39:17.782Z,14.88
2023-02-11T07:41:47.735Z,13.82
2023-02-11T07:44:15.819Z,14.80
2023-02-11T07:46:45.206Z,13.70
2023-02-11T07:49:13.574Z,14.48
2023-02-11T07:51:43.161Z,13.75
2023-02-11T07:54:12.422Z,14.77
2023-02-11T07:56:40.248Z,13.13
2023-02-11T07:59:08.106Z,13.77
2023-02-11T08:01:35.900Z,14.05
2023-02-11T08:04:05.093Z,12.98
2023-02-11T08:06:35.025Z,13.82
2023-02-11T08:09:07.859Z,14.27
2023-02-11T08:11:36.152Z,13.98
2023-02-11T08:14:04.198Z,14.55
2023-02-11T08:16:34.352Z,13.57
2023-02-11T08:19:04.162Z,14.07
2023-02-11T08:21:32.423Z,14.18
2023-02-11T08:24:02.098Z,13.80
2023-02-11T08:26:34.682Z,12.88
2023-02-11T08:29:06.407Z,13.90
2023-02-11T08:31:36.526Z,15.45
2023-02-11T08:34:04.908Z,14.98
2023-02-11T08:36:34.222Z,15.00
2023-02-11T08:39:18.210Z,14.05
2023-02-11T08:41:49.458Z,14.43
2023-02-11T08:44:17.795Z,15.07
2023-02-11T08:46:45.576Z,16.23
2023-02-11T08:49:13.400Z,14.07
2023-02-11T08:51:41.205Z,14.13
2023-02-11T08:54:10.258Z,15.15
2023-02-11T08:56:38.627Z,16.48
2023-02-11T08:59:09.153Z,14.18
2023-02-11T09:01:37.139Z,15.00
2023-02-11T09:04:05.252Z,14.48
2023-02-11T09:06:33.105Z,14.63
2023-02-11T09:09:00.916Z,14.23
2023-02-11T09:11:31.581Z,14.60
2023-02-11T09:14:01.333Z,13.27
2023-02-11T09:16:34.449Z,13.95
2023-02-11T09:19:04.525Z,14.07
2023-02-11T09:21:32.677Z,13.32
2023-02-11T09:24:00.507Z,13.27
2023-02-11T09:26:30.333Z,13.07
2023-02-11T09:28:58.937Z,13.02
2023-02-11T09:31:28.383Z,13.52
2023-02-11T09:33:59.726Z,12.93
2023-02-11T09:36:29.717Z,13.85
2023-02-11T09:38:59.458Z,13.40
2023-02-11T09:41:40.554Z,14.00
2023-02-11T09:44:11.229Z,13.52
2023-02-11T09:46:43.166Z,13.80
2023-02-11T09:49:20.844Z,11.70
2023-02-11T09:51:53.464Z,11.95
2023-02-11T09:54:39.816Z,12.30
2023-02-11T09:57:22.917Z,12.20
2023-02-11T09:59:54.646Z,12.57
2023-02-11T10:02:28.483Z,12.20
2023-02-11T10:05:19.288Z,12.10
2023-02-11T10:07:52.514Z,11.85
2023-02-11T10:10:38.075Z,11.93
2023-02-11T10:13:22.598Z,12.13
2023-02-11T10:15:59.460Z,11.55
2023-02-11T10:18:41.494Z,10.55
2023-02-11T10:21:21.944Z,11.73
2023-02-11T10:23:53.777Z,11.27
2023-02-11T10:26:22.305Z,10.00
2023-02-11T10:28:54.534Z,11.68
2023-02-11T10:31:26.132Z,10.93
2023-02-11T10:34:00.851Z,10.65
2023-02-11T10:36:33.914Z,10.75
2023-02-11T10:39:03.363Z,10.18
2023-02-11T10:41:35.015Z,10.07
2023-02-11T10:44:02.881Z,10.10
2023-02-11T10:46:34.454Z,10.38
2023-02-11T10:49:03.400Z,9.40
2023-02-11T10:51:34.440Z,9.27
2023-02-11T10:54:19.508Z,9.52
2023-02-11T10:56:50.815Z,9.93
2023-02-11T10:59:25.747Z,9.13
2023-02-11T11:01:55.437Z,9.23
2023-02-11T11:04:36.460Z,9.57
2023-02-11T11:07:19.758Z,9.70
2023-02-11T11:09:56.701Z,9.00
2023-02-11T11:14:58.083Z,8.57
2023-02-11T11:17:29.111Z,9.40
2023-02-11T11:22:41.636Z,8.75
2023-02-11T11:25:23.025Z,8.45
2023-02-11T11:27:52.200Z,8.80
2023-02-11T11:30:20.951Z,8.50
2023-02-11T11:32:48.797Z,8.35
2023-02-11T11:35:26.605Z,8.40
2023-02-11T11:38:01.773Z,8.07
2023-02-11T11:40:32.241Z,8.70
2023-02-11T11:43:06.865Z,8.10
2023-02-11T11:45:34.679Z,8.30
2023-02-11T11:48:07.798Z,8.25
2023-02-11T11:50:38.281Z,7.72
2023-02-11T11:53:14.935Z,7.55
2023-02-11T11:55:46.976Z,8.13
2023-02-11T11:58:18.778Z,7.53
2023-02-11T12:00:55.326Z,7.22
2023-02-11T12:03:49.541Z,7.80
2023-02-11T12:06:27.383Z,7.38
2023-02-11T12:09:05.971Z,6.88
2023-02-11T12:11:44.353Z,7.18
2023-02-11T12:14:21.524Z,6.55
2023-02-11T12:16:58.304Z,6.90
2023-02-11T12:19:59.610Z,6.40
2023-02-11T12:22:41.817Z,6.93
2023-02-11T12:25:28.147Z,6.50
2023-02-11T12:28:07.281Z,6.22
2023-02-11T12:31:02.250Z,6.13
2023-02-11T12:33:49.538Z,6.05
2023-02-11T12:36:27.419Z,5.82
2023-02-11T12:39:07.061Z,5.93
2023-02-11T12:42:06.728Z,5.80
2023-02-11T12:44:43.551Z,6.20
2023-02-11T12:47:21.479Z,5.70
2023-02-11T12:50:01.836Z,6.18
2023-02-11T12:52:44.132Z,5.65
2023-02-11T12:55:22.984Z,5.75
2023-02-11T12:57:57.168Z,5.60
2023-02-11T13:00:29.047Z,5.75
2023-02-11T13:03:05.173Z,5.32
2023-02-11T13:05:40.548Z,5.45
2023-02-11T13:08:15.602Z,5.93
2023-02-11T13:10:47.949Z,5.95
2023-02-11T13:13:22.428Z,5.80
2023-02-11T13:15:54.778Z,5.60
2023-02-11T13:18:33.605Z,5.03
2023-02-11T13:21:17.716Z,5.57
2023-02-11T13:23:51.804Z,5.60
2023-02-11T13:26:26.884Z,5.20
2023-02-11T13:29:07.862Z,5.63
2023-02-11T13:31:35.811Z,5.45
2023-02-11T13:34:03.882Z,5.60
2023-02-11T13:36:34.231Z,5.85
2023-02-11T13:39:05.703Z,5.38
2023-02-11T13:41:37.135Z,5.90
2023-02-11T13:44:22.331Z,5.85
2023-02-11T13:46:57.192Z,5.32
2023-02-11T13:49:30.723Z,5.72
2023-02-11T13:52:00.186Z,5.70
2023-02-11T13:54:33.324Z,5.57
2023-02-11T13:57:26.326Z,5.45
2023-02-11T13:59:57.133Z,5.57
2023-02-11T14:02:46.433Z,5.53
2023-02-11T14:05:40.912Z,6.10
2023-02-11T14:08:33.659Z,5.13
2023-02-11T14:11:03.689Z,5.43
2023-02-11T14:13:32.773Z,5.80
2023-02-11T14:16:11.097Z,5.65
2023-02-11T14:19:01.842Z,5.68
2023-02-11T14:21:36.754Z,5.90
2023-02-11T14:24:47.352Z,5.30
2023-02-11T14:27:22.821Z,5.60
2023-02-11T14:30:10.401Z,5.90
2023-02-11T14:32:51.690Z,5.97
2023-02-11T14:35:28.012Z,6.03
2023-02-11T14:38:03.068Z,5.50
2023-02-11T14:40:34.983Z,5.90
2023-02-11T14:43:13.134Z,5.50
2023-02-11T14:45:41.539Z,6.13
2023-02-11T14:48:17.043Z,5.80
2023-02-11T14:50:49.900Z,6.38
2023-02-11T14:53:21.160Z,6.72
2023-02-11T14:58:20.972Z,5.68
2023-02-11T15:00:55.043Z,5.28
2023-02-11T15:03:33.976Z,5.53
2023-02-11T15:06:04.706Z,5.40
2023-02-11T15:08:33.412Z,5.60
2023-02-11T15:11:03.256Z,5.32
2023-02-11T15:13:33.925Z,5.53
2023-02-11T15:16:06.546Z,5.45
2023-02-11T15:18:40.178Z,5.32
2023-02-11T15:21:09.142Z,5.32
2023-02-11T15:23:38.989Z,5.57
2023-02-11T15:26:14.341Z,5.28
2023-02-11T15:28:52.509Z,5.30
2023-02-11T15:31:23.276Z,5.63
2023-02-11T15:33:53.292Z,5.07
2023-02-11T15:36:23.788Z,5.07
2023-02-11T15:39:30.421Z,4.80
2023-02-11T15:41:58.378Z,5.15
2023-02-11T15:44:30.817Z,5.35
2023-02-11T15:46:59.019Z,5.18
2023-02-11T15:49:28.448Z,5.40
2023-02-11T15:51:58.043Z,5.68
2023-02-11T15:54:29.360Z,5.60
2023-02-11T15:57:02.706Z,5.40
2023-02-11T15:59:35.328Z,5.60
2023-02-11T16:02:09.221Z,5.63
2023-02-11T16:04:38.907Z,6.40
2023-02-11T16:07:06.780Z,6.68
2023-02-11T16:09:36.292Z,6.38
2023-02-11T16:12:07.665Z,6.72
2023-02-11T16:14:39.260Z,6.50
2023-02-11T16:17:10.485Z,5.90
2023-02-11T16:19:44.998Z,5.80
2023-02-11T16:22:18.068Z,4.97
2023-02-11T16:24:48.623Z,5.10
2023-02-11T16:27:23.713Z,5.65
2023-02-11T16:29:52.643Z,5.50
2023-02-11T16:32:23.326Z,5.40
2023-02-11T16:34:55.067Z,5.25
2023-02-11T16:37:22.837Z,5.55
2023-02-11T16:39:51.026Z,6.15
2023-02-11T16:42:18.819Z,5.28
2023-02-11T16:44:46.644Z,5.60
2023-02-11T16:47:21.504Z,5.20
2023-02-11T16:49:49.456Z,5.95
2023-02-11T16:52:20.289Z,5.95
2023-02-11T16:54:48.095Z,5.53
2023-02-11T16:57:17.766Z,5.60
2023-02-11T16:59:46.055Z,6.18
2023-02-11T17:02:17.347Z,5.93
2023-02-11T17:04:45.684Z,5.47
2023-02-11T17:07:13.577Z,5.57
2023-02-11T17:09:42.750Z,5.93
2023-02-11T17:12:11.369Z,5.97
2023-02-11T17:14:47.297Z,6.32
2023-02-11T17:17:15.219Z,6.28
2023-02-11T17:19:43.326Z,6.35
2023-02-11T17:22:12.753Z,5.90
2023-02-11T17:24:47.191Z,5.55
2023-02-11T17:27:17.461Z,6.00
2023-02-11T17:29:45.255Z,6.40
2023-02-11T17:32:13.170Z,6.13
2023-02-11T17:34:40.982Z,6.30
2023-02-11T17:37:09.303Z,5.82
2023-02-11T17:39:37.313Z,6.60
2023-02-11T17:42:07.245Z,5.90
2023-02-11T17:44:35.732Z,6.53
2023-02-11T17:47:03.515Z,6.60
2023-02-11T17:49:31.332Z,6.10
2023-02-11T17:51:59.138Z,6.70
2023-02-11T17:54:26.936Z,6.25
2023-02-11T17:56:58.115Z,6.20
2023-02-11T17:59:31.601Z,7.20
2023-02-11T18:01:59.732Z,6.78
2023-02-11T18:04:27.589Z,6.75
2023-02-11T18:06:55.495Z,6.90
2023-02-11T18:09:23.261Z,7.05
2023-02-11T18:11:52.568Z,6.75
2023-02-11T18:14:21.014Z,7.32
2023-02-11T18:16:52.230Z,7.43
2023-02-11T18:19:21.012Z,7.22
2023-02-11T18:21:48.915Z,7.43
2023-02-11T18:24:17.096Z,7.25
2023-02-11T18:26:44.939Z,10.35
2023-02-11T18:29:12.693Z,9.35
2023-02-11T18:31:40.553Z,8.32
2023-02-11T18:34:10.667Z,8.20
2023-02-11T18:36:38.853Z,8.38
2023-02-11T18:39:07.186Z,7.90
2023-02-11T18:41:35.004Z,8.40
2023-02-11T18:44:04.532Z,7.60
2023-02-11T18:46:32.407Z,7.50
2023-02-11T18:49:00.307Z,7.55
2023-02-11T18:51:31.924Z,8.07
2023-02-11T18:53:59.901Z,8.23
2023-02-11T18:56:28.710Z,8.23
2023-02-11T18:58:57.256Z,8.77
2023-02-11T19:01:27.408Z,7.90
2023-02-11T19:03:57.218Z,8.57
2023-02-11T19:06:26.762Z,7.95
2023-02-11T19:08:59.909Z,8.10
2023-02-11T19:11:42.447Z,7.50
2023-02-11T19:14:11.196Z,8.00
2023-02-11T19:16:39.704Z,7.70
2023-02-11T19:19:08.859Z,7.10
2023-02-11T19:21:37.717Z,7.50
2023-02-11T19:24:09.366Z,7.70
2023-02-11T19:26:38.082Z,7.70
2023-02-11T19:29:07.067Z,7.53
2023-02-11T19:31:35.394Z,7.45
2023-02-11T19:34:04.719Z,8.20
2023-02-11T19:36:32.637Z,8.48
2023-02-11T19:39:00.970Z,8.48
2023-02-11T19:41:31.027Z,9.05
2023-02-11T19:43:59.002Z,8.70
2023-02-11T19:46:28.696Z,8.77
2023-02-11T19:48:56.725Z,9.07
2023-02-11T19:51:24.539Z,8.65
2023-02-11T19:53:52.384Z,7.95
2023-02-11T19:56:20.984Z,8.75
2023-02-11T19:58:50.352Z,8.40
2023-02-11T20:01:20.442Z,8.32
2023-02-11T20:03:50.417Z,7.25
2023-02-11T20:06:21.566Z,7.85
2023-02-11T20:11:18.358Z,8.20
2023-02-11T20:13:46.675Z,8.02
2023-02-11T20:16:18.678Z,8.23
2023-02-11T20:18:47.808Z,7.85
2023-02-11T20:21:17.749Z,8.20
2023-02-11T20:23:46.584Z,8.05
2023-02-11T20:26:16.295Z,8.13
2023-02-11T20:28:44.483Z,7.35
2023-02-11T20:31:13.190Z,7.50
2023-02-11T20:33:43.659Z,8.23
2023-02-11T20:36:15.868Z,10.05
2023-02-11T20:41:14.351Z,9.60
2023-02-11T20:43:45.795Z,10.07
2023-02-11T20:46:14.889Z,8.15
2023-02-11T20:48:44.414Z,8.40
2023-02-11T20:51:14.510Z,9.05
2023-02-11T20:53:44.347Z,8.65
2023-02-11T20:56:13.313Z,9.13
2023-02-11T20:58:41.712Z,8.32
2023-02-11T21:01:09.879Z,8.82
2023-02-11T21:03:37.824Z,8.65
2023-02-11T21:06:10.129Z,8.90
2023-02-11T21:08:39.760Z,8.57
2023-02-11T21:11:08.838Z,8.65
2023-02-11T21:13:36.926Z,8.82
2023-02-11T21:16:05.716Z,8.50
2023-02-11T21:18:34.212Z,8.73
2023-02-11T21:21:02.385Z,9.07
2023-02-11T21:23:31.584Z,9.48
2023-02-11T21:25:59.343Z,9.10
2023-02-11T21:28:27.353Z,8.95
2023-02-11T21:30:56.598Z,9.10
2023-02-11T21:33:25.279Z,9.82
2023-02-11T21:35:56.186Z,8.63
2023-02-11T21:38:24.299Z,8.63
2023-02-11T21:40:53.980Z,9.00
2023-02-11T21:43:25.611Z,8.63
2023-02-11T21:45:54.696Z,9.23
2023-02-11T21:48:23.751Z,8.98
2023-02-11T21:50:51.563Z,10.30
2023-02-11T21:53:19.453Z,9.75
2023-02-11T21:55:47.289Z,9.20
2023-02-11T21:58:16.438Z,8.93
2023-02-11T22:00:44.235Z,9.20
2023-02-11T22:03:12.955Z,8.50
2023-02-11T22:05:41.563Z,8.60
2023-02-11T22:08:09.366Z,7.97
2023-02-11T22:10:37.176Z,8.90
2023-02-11T22:13:04.985Z,9.05
2023-02-11T22:15:34.179Z,9.90
2023-02-11T22:18:02.001Z,9.93
2023-02-11T22:20:29.847Z,10.35
2023-02-11T22:22:57.661Z,10.77
2023-02-11T22:25:25.453Z,10.70
2023-02-11T22:27:53.232Z,10.13
2023-02-11T22:30:21.313Z,10.82
2023-02-11T22:32:50.918Z,10.05
2023-02-11T22:35:18.732Z,10.82
2023-02-11T22:37:46.516Z,10.30
2023-02-11T22:40:14.812Z,10.13
2023-02-11T22:42:42.608Z,10.73
2023-02-11T22:45:10.726Z,10.13
2023-02-11T22:47:38.942Z,10.38
2023-02-11T22:50:08.923Z,11.30
2023-02-11T22:52:37.120Z,10.88
2023-02-11T22:55:05.508Z,10.60
2023-02-11T22:57:33.330Z,10.40
2023-02-11T23:00:01.132Z,11.70
2023-02-11T23:02:29.033Z,10.55
2023-02-11T23:04:56.831Z,10.55
2023-02-11T23:07:26.049Z,11.00
2023-02-11T23:09:53.837Z,11.07
2023-02-11T23:12:21.661Z,10.55
2023-02-11T23:14:49.457Z,10.13
2023-02-11T23:17:17.296Z,10.43
2023-02-11T23:19:45.049Z,10.40
2023-02-11T23:22:12.841Z,9.63
2023-02-11T23:24:42.006Z,10.85
2023-02-11T23:27:09.773Z,10.43
2023-02-11T23:29:37.654Z,10.18
2023-02-11T23:32:05.818Z,10.25
2023-02-11T23:34:33.632Z,10.18
2023-02-11T23:37:01.543Z,10.18
2023-02-11T23:39:29.491Z,10.98
2023-02-11T23:41:59.527Z,11.05
2023-02-11T23:44:27.551Z,10.20
2023-02-11T23:46:55.357Z,9.23
2023-02-11T23:49:23.159Z,10.65
2023-02-11T23:51:50.970Z,10.45
2023-02-11T23:54:18.760Z,10.65
2023-02-11T23:56:46.930Z,10.38
2023-02-11T23:59:17.015Z,10.77
